Portada
METAR-TAF:

METAR-TAF

Aeroports :

Barnaül, Rússia

latitud: 53-26N, longitud: 083-31E, altitud: 252 m

Observació

L'informe es va fer fa 13 minuts, a les 03:30 UTC
Vent 8 kt del Sud-Oest
Temperatura -26°C
Humitat 69%
Pressió 1032 hPa
Visibilitat: 9000 m
Núvols disperses a una alçada de 700 ft
Cel ennuvolat a una alçada de 2000 ft
neu

METAR: UNBB 210330Z 22004MPS 9000 -SN SCT007 BKN020 M26/M30 Q1032 R24/820347 NOSIG RMK QFE752

Hora: 10:43 (03:43 UTC)

Pronòstic

L'informe es va fer fa 1 hora i 43 minuts, a les 02:00 UTC
Pronòstic vàlid del 21 a les 03 UTC al 22 a les 03 UTC
Vent 12 kt del Sud/Sud-Oest amb ràfegues de 25 kt
Visibilitat 10 km o més
Cel ennuvolat a una alçada de 2000 ft, Cumulonimbus.
Temporalment
l' 21 a les 03 UTC al 22 a les 03 UTC
Visibilitat: 3100 m
Núvols disperses a una alçada de 400 ft
Cel ennuvolat a una alçada de 1100 ft, Cumulonimbus.
xàfecs de neu, torb baixa de neu

TAF: UNBB 210200Z 2103/2203 21006G13MPS 9999 BKN020CB TEMPO 2103/2203 3100 -SHSN DRSN SCT004 BKN011CB

Observacions i pronòstics meteorològics de més de 4000 aeroports (METAR i TAF).

Les estacions disponibles són els punts grocs i vermells al mapa.

Posi el ratolí al punt desitjat per veure el nom de l'estació.

Feu clic per veure les observacions i els pronòstics meteorològics.

Per canviar el mapa: feu clic els botons verds amb una creu de color negre per apropar; al botó verd amb un guió per allunyar la imatge; o en les fletxes verdes per a mapes adjacents.


METAR-TAF: